sensor_id;sensor_type;location;lat;lon;timestamp;P1;durP1;ratioP1;P2;durP2;ratioP2
57467;SDS011;43311;51.196;7.518;2023-07-13T00:01:12;6.30;;;1.35;;
57467;SDS011;43311;51.196;7.518;2023-07-13T00:03:41;4.47;;;1.20;;
57467;SDS011;43311;51.196;7.518;2023-07-13T00:06:07;7.00;;;1.20;;
57467;SDS011;43311;51.196;7.518;2023-07-13T00:08:34;3.65;;;0.98;;
57467;SDS011;43311;51.196;7.518;2023-07-13T00:11:00;2.70;;;1.20;;
57467;SDS011;43311;51.196;7.518;2023-07-13T00:13:26;5.40;;;1.30;;
57467;SDS011;43311;51.196;7.518;2023-07-13T00:15:53;4.70;;;1.25;;
57467;SDS011;43311;51.196;7.518;2023-07-13T00:18:19;4.25;;;1.20;;
57467;SDS011;43311;51.196;7.518;2023-07-13T00:23:51;5.13;;;1.35;;
57467;SDS011;43311;51.196;7.518;2023-07-13T00:26:18;4.82;;;1.20;;
57467;SDS011;43311;51.196;7.518;2023-07-13T00:28:43;3.70;;;1.70;;
57467;SDS011;43311;51.196;7.518;2023-07-13T00:31:09;7.45;;;1.58;;
57467;SDS011;43311;51.196;7.518;2023-07-13T00:33:36;4.78;;;0.95;;
57467;SDS011;43311;51.196;7.518;2023-07-13T00:36:02;3.97;;;1.27;;
57467;SDS011;43311;51.196;7.518;2023-07-13T00:38:28;4.57;;;1.15;;
57467;SDS011;43311;51.196;7.518;2023-07-13T00:40:54;5.13;;;1.73;;
57467;SDS011;43311;51.196;7.518;2023-07-13T00:43:20;2.50;;;1.25;;
57467;SDS011;43311;51.196;7.518;2023-07-13T00:48:16;5.38;;;2.03;;
57467;SDS011;43311;51.196;7.518;2023-07-13T00:50:45;3.60;;;1.40;;
57467;SDS011;43311;51.196;7.518;2023-07-13T00:53:14;5.70;;;1.30;;
57467;SDS011;43311;51.196;7.518;2023-07-13T00:55:40;3.47;;;1.10;;
57467;SDS011;43311;51.196;7.518;2023-07-13T00:58:05;9.98;;;1.65;;
57467;SDS011;43311;51.196;7.518;2023-07-13T01:00:33;5.63;;;1.67;;
57467;SDS011;43311;51.196;7.518;2023-07-13T01:03:01;4.40;;;1.27;;
57467;SDS011;43311;51.196;7.518;2023-07-13T01:05:29;6.20;;;1.33;;
57467;SDS011;43311;51.196;7.518;2023-07-13T01:07:57;4.32;;;1.10;;
57467;SDS011;43311;51.196;7.518;2023-07-13T01:10:25;1.73;;;1.10;;
57467;SDS011;43311;51.196;7.518;2023-07-13T01:12:51;6.10;;;1.25;;
57467;SDS011;43311;51.196;7.518;2023-07-13T01:18:08;5.25;;;1.92;;
57467;SDS011;43311;51.196;7.518;2023-07-13T01:20:36;2.38;;;1.10;;
57467;SDS011;43311;51.196;7.518;2023-07-13T01:23:07;3.53;;;1.27;;
57467;SDS011;43311;51.196;7.518;2023-07-13T01:25:34;3.60;;;1.40;;
57467;SDS011;43311;51.196;7.518;2023-07-13T01:28:03;9.40;;;1.73;;
57467;SDS011;43311;51.196;7.518;2023-07-13T01:30:30;1.58;;;0.95;;
57467;SDS011;43311;51.196;7.518;2023-07-13T01:32:57;6.72;;;1.60;;
57467;SDS011;43311;51.196;7.518;2023-07-13T01:35:25;3.38;;;1.00;;
57467;SDS011;43311;51.196;7.518;2023-07-13T01:37:52;3.17;;;1.00;;
57467;SDS011;43311;51.196;7.518;2023-07-13T01:40:18;8.18;;;1.95;;
57467;SDS011;43311;51.196;7.518;2023-07-13T01:42:45;5.68;;;1.23;;
57467;SDS011;43311;51.196;7.518;2023-07-13T01:45:10;3.03;;;1.00;;
57467;SDS011;43311;51.196;7.518;2023-07-13T01:47:36;12.73;;;1.33;;
57467;SDS011;43311;51.196;7.518;2023-07-13T01:50:01;8.18;;;1.40;;
57467;SDS011;43311;51.196;7.518;2023-07-13T01:52:27;4.07;;;1.08;;
57467;SDS011;43311;51.196;7.518;2023-07-13T01:54:52;7.38;;;1.40;;
57467;SDS011;43311;51.196;7.518;2023-07-13T01:57:18;7.13;;;1.48;;
57467;SDS011;43311;51.196;7.518;2023-07-13T01:59:43;11.52;;;1.55;;
57467;SDS011;43311;51.196;7.518;2023-07-13T02:02:09;5.28;;;1.33;;
57467;SDS011;43311;51.196;7.518;2023-07-13T02:04:34;7.40;;;1.60;;
57467;SDS011;43311;51.196;7.518;2023-07-13T02:07:00;5.78;;;1.42;;
57467;SDS011;43311;51.196;7.518;2023-07-13T02:09:25;6.80;;;1.30;;
57467;SDS011;43311;51.196;7.518;2023-07-13T02:11:51;4.22;;;1.10;;
57467;SDS011;43311;51.196;7.518;2023-07-13T02:14:16;6.28;;;1.23;;
57467;SDS011;43311;51.196;7.518;2023-07-13T02:16:42;3.95;;;0.95;;
57467;SDS011;43311;51.196;7.518;2023-07-13T02:19:07;5.00;;;1.00;;
57467;SDS011;43311;51.196;7.518;2023-07-13T02:21:33;2.97;;;1.05;;
57467;SDS011;43311;51.196;7.518;2023-07-13T02:23:59;7.28;;;1.98;;
57467;SDS011;43311;51.196;7.518;2023-07-13T02:26:25;5.15;;;1.17;;
57467;SDS011;43311;51.196;7.518;2023-07-13T02:28:51;6.38;;;1.20;;
57467;SDS011;43311;51.196;7.518;2023-07-13T02:31:18;9.33;;;1.50;;
57467;SDS011;43311;51.196;7.518;2023-07-13T02:33:44;2.65;;;1.27;;
57467;SDS011;43311;51.196;7.518;2023-07-13T02:36:10;5.78;;;1.50;;
57467;SDS011;43311;51.196;7.518;2023-07-13T02:38:37;7.95;;;1.35;;
57467;SDS011;43311;51.196;7.518;2023-07-13T02:41:03;1.80;;;1.20;;
57467;SDS011;43311;51.196;7.518;2023-07-13T02:43:29;6.57;;;1.88;;
57467;SDS011;43311;51.196;7.518;2023-07-13T02:45:55;4.40;;;1.02;;
57467;SDS011;43311;51.196;7.518;2023-07-13T02:48:22;6.85;;;2.03;;
57467;SDS011;43311;51.196;7.518;2023-07-13T02:50:47;2.65;;;1.20;;
57467;SDS011;43311;51.196;7.518;2023-07-13T02:53:12;3.92;;;1.50;;
57467;SDS011;43311;51.196;7.518;2023-07-13T02:55:38;2.88;;;1.42;;
57467;SDS011;43311;51.196;7.518;2023-07-13T02:58:06;6.20;;;1.33;;
57467;SDS011;43311;51.196;7.518;2023-07-13T03:00:32;5.30;;;1.58;;
57467;SDS011;43311;51.196;7.518;2023-07-13T03:02:58;5.32;;;1.33;;
57467;SDS011;43311;51.196;7.518;2023-07-13T03:05:24;5.28;;;1.80;;
57467;SDS011;43311;51.196;7.518;2023-07-13T03:07:49;9.95;;;1.95;;
57467;SDS011;43311;51.196;7.518;2023-07-13T03:10:15;6.38;;;2.15;;
57467;SDS011;43311;51.196;7.518;2023-07-13T03:12:46;4.20;;;1.10;;
57467;SDS011;43311;51.196;7.518;2023-07-13T03:15:20;2.25;;;1.30;;
57467;SDS011;43311;51.196;7.518;2023-07-13T03:17:46;3.83;;;1.30;;
57467;SDS011;43311;51.196;7.518;2023-07-13T03:20:12;4.43;;;1.25;;
57467;SDS011;43311;51.196;7.518;2023-07-13T03:22:38;5.03;;;1.20;;
57467;SDS011;43311;51.196;7.518;2023-07-13T03:25:04;5.95;;;1.15;;
57467;SDS011;43311;51.196;7.518;2023-07-13T03:27:30;5.22;;;1.67;;
57467;SDS011;43311;51.196;7.518;2023-07-13T03:29:55;4.32;;;1.40;;
57467;SDS011;43311;51.196;7.518;2023-07-13T03:32:21;10.77;;;1.40;;
57467;SDS011;43311;51.196;7.518;2023-07-13T03:34:47;6.90;;;1.75;;
57467;SDS011;43311;51.196;7.518;2023-07-13T03:37:13;5.60;;;1.70;;
57467;SDS011;43311;51.196;7.518;2023-07-13T03:39:39;3.65;;;1.38;;
57467;SDS011;43311;51.196;7.518;2023-07-13T03:42:05;6.97;;;1.40;;
57467;SDS011;43311;51.196;7.518;2023-07-13T03:44:31;3.92;;;1.40;;
57467;SDS011;43311;51.196;7.518;2023-07-13T03:46:57;8.27;;;1.65;;
57467;SDS011;43311;51.196;7.518;2023-07-13T03:49:23;7.20;;;1.90;;
57467;SDS011;43311;51.196;7.518;2023-07-13T03:51:48;4.10;;;1.45;;
57467;SDS011;43311;51.196;7.518;2023-07-13T03:54:14;4.18;;;1.35;;
57467;SDS011;43311;51.196;7.518;2023-07-13T03:56:39;7.95;;;2.00;;
57467;SDS011;43311;51.196;7.518;2023-07-13T03:59:07;8.40;;;1.75;;
57467;SDS011;43311;51.196;7.518;2023-07-13T04:01:33;5.53;;;1.83;;
57467;SDS011;43311;51.196;7.518;2023-07-13T04:03:58;3.60;;;1.92;;
57467;SDS011;43311;51.196;7.518;2023-07-13T04:06:27;6.43;;;1.70;;
57467;SDS011;43311;51.196;7.518;2023-07-13T04:08:55;6.45;;;1.52;;
57467;SDS011;43311;51.196;7.518;2023-07-13T04:11:24;12.80;;;2.63;;
57467;SDS011;43311;51.196;7.518;2023-07-13T04:13:52;7.78;;;1.60;;
57467;SDS011;43311;51.196;7.518;2023-07-13T04:16:18;9.02;;;1.50;;
57467;SDS011;43311;51.196;7.518;2023-07-13T04:18:45;3.97;;;1.50;;
57467;SDS011;43311;51.196;7.518;2023-07-13T04:21:11;7.15;;;1.30;;
57467;SDS011;43311;51.196;7.518;2023-07-13T04:23:38;6.38;;;1.55;;
57467;SDS011;43311;51.196;7.518;2023-07-13T04:26:04;7.47;;;1.80;;
57467;SDS011;43311;51.196;7.518;2023-07-13T04:28:30;7.45;;;2.45;;
57467;SDS011;43311;51.196;7.518;2023-07-13T04:30:56;5.03;;;1.50;;
57467;SDS011;43311;51.196;7.518;2023-07-13T04:33:21;5.22;;;1.60;;
57467;SDS011;43311;51.196;7.518;2023-07-13T04:35:50;5.15;;;1.52;;
57467;SDS011;43311;51.196;7.518;2023-07-13T04:38:25;5.72;;;1.52;;
57467;SDS011;43311;51.196;7.518;2023-07-13T04:40:55;3.92;;;1.45;;
57467;SDS011;43311;51.196;7.518;2023-07-13T04:43:22;10.60;;;1.88;;
57467;SDS011;43311;51.196;7.518;2023-07-13T04:45:49;6.97;;;1.67;;
57467;SDS011;43311;51.196;7.518;2023-07-13T04:48:16;4.13;;;1.85;;
57467;SDS011;43311;51.196;7.518;2023-07-13T04:50:41;7.53;;;1.50;;
57467;SDS011;43311;51.196;7.518;2023-07-13T04:53:08;7.20;;;1.73;;
57467;SDS011;43311;51.196;7.518;2023-07-13T04:55:35;5.90;;;1.20;;
57467;SDS011;43311;51.196;7.518;2023-07-13T04:58:01;10.85;;;2.25;;
57467;SDS011;43311;51.196;7.518;2023-07-13T05:00:27;5.20;;;1.95;;
57467;SDS011;43311;51.196;7.518;2023-07-13T05:02:57;6.97;;;2.08;;
57467;SDS011;43311;51.196;7.518;2023-07-13T05:05:24;7.43;;;1.63;;
57467;SDS011;43311;51.196;7.518;2023-07-13T05:07:50;3.83;;;1.33;;
57467;SDS011;43311;51.196;7.518;2023-07-13T05:10:16;4.72;;;1.55;;
57467;SDS011;43311;51.196;7.518;2023-07-13T05:12:42;5.03;;;1.42;;
57467;SDS011;43311;51.196;7.518;2023-07-13T05:15:07;7.32;;;1.38;;
57467;SDS011;43311;51.196;7.518;2023-07-13T05:17:33;10.88;;;2.08;;
57467;SDS011;43311;51.196;7.518;2023-07-13T05:19:58;3.63;;;1.40;;
57467;SDS011;43311;51.196;7.518;2023-07-13T05:22:25;7.65;;;1.52;;
57467;SDS011;43311;51.196;7.518;2023-07-13T05:24:50;9.43;;;2.10;;
57467;SDS011;43311;51.196;7.518;2023-07-13T05:27:16;7.70;;;1.63;;
57467;SDS011;43311;51.196;7.518;2023-07-13T05:29:41;5.90;;;1.40;;
57467;SDS011;43311;51.196;7.518;2023-07-13T05:32:06;5.05;;;1.58;;
57467;SDS011;43311;51.196;7.518;2023-07-13T05:34:32;9.35;;;2.20;;
57467;SDS011;43311;51.196;7.518;2023-07-13T05:36:57;8.27;;;1.70;;
57467;SDS011;43311;51.196;7.518;2023-07-13T05:39:23;6.30;;;1.63;;
57467;SDS011;43311;51.196;7.518;2023-07-13T05:41:48;4.47;;;1.83;;
57467;SDS011;43311;51.196;7.518;2023-07-13T05:44:14;5.32;;;1.70;;
57467;SDS011;43311;51.196;7.518;2023-07-13T05:46:39;7.00;;;1.23;;
57467;SDS011;43311;51.196;7.518;2023-07-13T05:49:04;5.22;;;1.17;;
57467;SDS011;43311;51.196;7.518;2023-07-13T05:51:30;8.63;;;1.50;;
57467;SDS011;43311;51.196;7.518;2023-07-13T05:53:55;6.55;;;1.58;;
57467;SDS011;43311;51.196;7.518;2023-07-13T05:56:21;2.13;;;1.13;;
57467;SDS011;43311;51.196;7.518;2023-07-13T05:58:47;7.10;;;1.70;;
57467;SDS011;43311;51.196;7.518;2023-07-13T06:01:13;6.70;;;1.65;;
57467;SDS011;43311;51.196;7.518;2023-07-13T06:03:40;4.10;;;1.17;;
57467;SDS011;43311;51.196;7.518;2023-07-13T06:06:06;6.55;;;1.58;;
57467;SDS011;43311;51.196;7.518;2023-07-13T06:08:33;7.22;;;2.00;;
57467;SDS011;43311;51.196;7.518;2023-07-13T06:11:05;5.85;;;1.55;;
57467;SDS011;43311;51.196;7.518;2023-07-13T06:13:47;5.40;;;1.83;;
57467;SDS011;43311;51.196;7.518;2023-07-13T06:16:13;8.40;;;2.05;;
57467;SDS011;43311;51.196;7.518;2023-07-13T06:18:40;7.60;;;2.10;;
57467;SDS011;43311;51.196;7.518;2023-07-13T06:21:06;8.00;;;2.53;;
57467;SDS011;43311;51.196;7.518;2023-07-13T06:23:36;8.85;;;2.33;;
57467;SDS011;43311;51.196;7.518;2023-07-13T06:26:02;8.63;;;2.13;;
57467;SDS011;43311;51.196;7.518;2023-07-13T06:28:28;9.13;;;2.67;;
57467;SDS011;43311;51.196;7.518;2023-07-13T06:30:55;7.53;;;2.70;;
57467;SDS011;43311;51.196;7.518;2023-07-13T06:33:20;11.73;;;2.75;;
57467;SDS011;43311;51.196;7.518;2023-07-13T06:35:46;8.90;;;2.58;;
57467;SDS011;43311;51.196;7.518;2023-07-13T06:38:11;13.13;;;3.50;;
57467;SDS011;43311;51.196;7.518;2023-07-13T06:40:36;14.05;;;4.60;;
57467;SDS011;43311;51.196;7.518;2023-07-13T06:43:02;9.80;;;4.53;;
57467;SDS011;43311;51.196;7.518;2023-07-13T06:45:27;9.55;;;3.40;;
57467;SDS011;43311;51.196;7.518;2023-07-13T06:47:53;7.85;;;3.42;;
57467;SDS011;43311;51.196;7.518;2023-07-13T06:50:18;8.38;;;3.15;;
57467;SDS011;43311;51.196;7.518;2023-07-13T06:52:44;12.85;;;3.03;;
57467;SDS011;43311;51.196;7.518;2023-07-13T06:55:09;8.63;;;2.95;;
57467;SDS011;43311;51.196;7.518;2023-07-13T06:57:35;5.70;;;2.58;;
57467;SDS011;43311;51.196;7.518;2023-07-13T07:00:00;10.20;;;3.28;;
57467;SDS011;43311;51.196;7.518;2023-07-13T07:02:25;8.45;;;2.72;;
57467;SDS011;43311;51.196;7.518;2023-07-13T07:04:51;14.98;;;3.75;;
57467;SDS011;43311;51.196;7.518;2023-07-13T07:07:16;7.10;;;3.15;;
57467;SDS011;43311;51.196;7.518;2023-07-13T07:09:42;7.10;;;4.25;;
57467;SDS011;43311;51.196;7.518;2023-07-13T07:12:07;9.80;;;3.40;;
57467;SDS011;43311;51.196;7.518;2023-07-13T07:14:33;13.38;;;4.22;;
57467;SDS011;43311;51.196;7.518;2023-07-13T07:16:59;9.00;;;4.10;;
57467;SDS011;43311;51.196;7.518;2023-07-13T07:19:25;8.98;;;3.20;;
57467;SDS011;43311;51.196;7.518;2023-07-13T07:21:51;16.00;;;4.57;;
57467;SDS011;43311;51.196;7.518;2023-07-13T07:24:17;10.48;;;5.15;;
57467;SDS011;43311;51.196;7.518;2023-07-13T07:26:42;14.15;;;4.82;;
57467;SDS011;43311;51.196;7.518;2023-07-13T07:29:07;13.75;;;4.40;;
57467;SDS011;43311;51.196;7.518;2023-07-13T07:31:33;7.75;;;4.57;;
57467;SDS011;43311;51.196;7.518;2023-07-13T07:33:58;7.68;;;3.92;;
57467;SDS011;43311;51.196;7.518;2023-07-13T07:36:24;11.50;;;4.78;;
57467;SDS011;43311;51.196;7.518;2023-07-13T07:38:49;9.13;;;4.45;;
57467;SDS011;43311;51.196;7.518;2023-07-13T07:41:14;7.38;;;4.28;;
57467;SDS011;43311;51.196;7.518;2023-07-13T07:43:40;6.97;;;3.28;;
57467;SDS011;43311;51.196;7.518;2023-07-13T07:46:05;6.00;;;3.13;;
57467;SDS011;43311;51.196;7.518;2023-07-13T07:48:31;7.82;;;3.45;;
57467;SDS011;43311;51.196;7.518;2023-07-13T07:50:56;9.32;;;2.90;;
57467;SDS011;43311;51.196;7.518;2023-07-13T07:53:22;18.55;;;3.08;;
57467;SDS011;43311;51.196;7.518;2023-07-13T07:55:47;8.10;;;2.72;;
57467;SDS011;43311;51.196;7.518;2023-07-13T07:58:13;4.35;;;2.13;;
57467;SDS011;43311;51.196;7.518;2023-07-13T08:00:38;5.43;;;2.20;;
57467;SDS011;43311;51.196;7.518;2023-07-13T08:03:04;8.80;;;2.47;;
57467;SDS011;43311;51.196;7.518;2023-07-13T08:05:30;7.43;;;2.20;;
57467;SDS011;43311;51.196;7.518;2023-07-13T08:07:56;6.40;;;2.42;;
57467;SDS011;43311;51.196;7.518;2023-07-13T08:10:21;7.93;;;2.35;;
57467;SDS011;43311;51.196;7.518;2023-07-13T08:12:47;7.70;;;2.30;;
57467;SDS011;43311;51.196;7.518;2023-07-13T08:15:13;7.60;;;2.20;;
57467;SDS011;43311;51.196;7.518;2023-07-13T08:17:40;5.43;;;1.92;;
57467;SDS011;43311;51.196;7.518;2023-07-13T08:20:06;9.25;;;2.05;;
57467;SDS011;43311;51.196;7.518;2023-07-13T08:22:34;8.80;;;2.80;;
57467;SDS011;43311;51.196;7.518;2023-07-13T08:25:00;7.55;;;1.90;;
57467;SDS011;43311;51.196;7.518;2023-07-13T08:27:27;9.98;;;2.30;;
57467;SDS011;43311;51.196;7.518;2023-07-13T08:29:54;4.47;;;2.35;;
57467;SDS011;43311;51.196;7.518;2023-07-13T08:32:22;10.38;;;2.20;;
57467;SDS011;43311;51.196;7.518;2023-07-13T08:34:48;5.50;;;2.20;;
57467;SDS011;43311;51.196;7.518;2023-07-13T08:37:14;7.68;;;1.95;;
57467;SDS011;43311;51.196;7.518;2023-07-13T08:39:42;8.93;;;2.05;;
57467;SDS011;43311;51.196;7.518;2023-07-13T08:42:12;5.70;;;2.10;;
57467;SDS011;43311;51.196;7.518;2023-07-13T08:47:28;7.57;;;2.22;;
57467;SDS011;43311;51.196;7.518;2023-07-13T08:49:55;6.03;;;2.00;;
57467;SDS011;43311;51.196;7.518;2023-07-13T08:52:26;7.03;;;2.17;;
57467;SDS011;43311;51.196;7.518;2023-07-13T08:55:02;9.32;;;2.92;;
57467;SDS011;43311;51.196;7.518;2023-07-13T08:57:41;9.10;;;3.22;;
57467;SDS011;43311;51.196;7.518;2023-07-13T09:00:10;4.93;;;2.25;;
57467;SDS011;43311;51.196;7.518;2023-07-13T09:02:48;7.78;;;2.85;;
57467;SDS011;43311;51.196;7.518;2023-07-13T09:05:22;8.07;;;2.70;;
57467;SDS011;43311;51.196;7.518;2023-07-13T09:10:46;6.15;;;2.97;;
57467;SDS011;43311;51.196;7.518;2023-07-13T09:16:23;6.03;;;1.98;;
57467;SDS011;43311;51.196;7.518;2023-07-13T09:18:51;5.05;;;2.15;;
57467;SDS011;43311;51.196;7.518;2023-07-13T09:21:29;8.20;;;2.53;;
57467;SDS011;43311;51.196;7.518;2023-07-13T09:24:24;8.45;;;2.90;;
57467;SDS011;43311;51.196;7.518;2023-07-13T09:27:12;4.80;;;2.10;;
57467;SDS011;43311;51.196;7.518;2023-07-13T09:29:45;6.68;;;2.10;;
57467;SDS011;43311;51.196;7.518;2023-07-13T09:32:35;5.78;;;2.70;;
57467;SDS011;43311;51.196;7.518;2023-07-13T09:35:05;5.47;;;1.75;;
57467;SDS011;43311;51.196;7.518;2023-07-13T09:37:43;9.48;;;2.28;;
57467;SDS011;43311;51.196;7.518;2023-07-13T09:40:11;7.00;;;3.15;;
57467;SDS011;43311;51.196;7.518;2023-07-13T09:42:48;4.47;;;2.42;;
57467;SDS011;43311;51.196;7.518;2023-07-13T09:45:14;7.40;;;2.33;;
57467;SDS011;43311;51.196;7.518;2023-07-13T09:47:53;8.13;;;2.40;;
57467;SDS011;43311;51.196;7.518;2023-07-13T09:50:24;5.07;;;2.80;;
57467;SDS011;43311;51.196;7.518;2023-07-13T09:52:51;6.85;;;2.75;;
57467;SDS011;43311;51.196;7.518;2023-07-13T09:55:24;6.95;;;2.90;;
57467;SDS011;43311;51.196;7.518;2023-07-13T09:57:50;6.25;;;2.80;;
57467;SDS011;43311;51.196;7.518;2023-07-13T10:00:21;7.78;;;2.95;;
57467;SDS011;43311;51.196;7.518;2023-07-13T10:03:16;4.78;;;2.63;;
57467;SDS011;43311;51.196;7.518;2023-07-13T10:05:46;6.68;;;2.78;;
57467;SDS011;43311;51.196;7.518;2023-07-13T10:08:25;8.07;;;2.88;;
57467;SDS011;43311;51.196;7.518;2023-07-13T10:11:29;6.78;;;2.50;;
57467;SDS011;43311;51.196;7.518;2023-07-13T10:14:00;7.45;;;2.28;;
57467;SDS011;43311;51.196;7.518;2023-07-13T10:16:28;5.50;;;1.98;;
57467;SDS011;43311;51.196;7.518;2023-07-13T10:18:58;6.63;;;2.15;;
57467;SDS011;43311;51.196;7.518;2023-07-13T10:21:39;5.55;;;2.35;;
57467;SDS011;43311;51.196;7.518;2023-07-13T10:24:24;5.63;;;2.47;;
57467;SDS011;43311;51.196;7.518;2023-07-13T10:27:01;6.25;;;2.35;;
57467;SDS011;43311;51.196;7.518;2023-07-13T10:29:48;6.15;;;2.22;;
57467;SDS011;43311;51.196;7.518;2023-07-13T10:32:24;5.72;;;2.00;;
57467;SDS011;43311;51.196;7.518;2023-07-13T10:34:50;3.97;;;2.20;;
57467;SDS011;43311;51.196;7.518;2023-07-13T10:37:22;6.53;;;2.08;;
57467;SDS011;43311;51.196;7.518;2023-07-13T10:39:50;8.80;;;2.58;;
57467;SDS011;43311;51.196;7.518;2023-07-13T10:42:28;4.05;;;1.70;;
57467;SDS011;43311;51.196;7.518;2023-07-13T10:44:57;4.90;;;1.80;;
57467;SDS011;43311;51.196;7.518;2023-07-13T10:47:22;6.68;;;2.03;;
57467;SDS011;43311;51.196;7.518;2023-07-13T10:49:50;5.05;;;1.77;;
57467;SDS011;43311;51.196;7.518;2023-07-13T10:58:03;6.97;;;2.10;;
57467;SDS011;43311;51.196;7.518;2023-07-13T11:06:34;6.10;;;2.00;;
57467;SDS011;43311;51.196;7.518;2023-07-13T11:20:09;6.70;;;2.05;;
57467;SDS011;43311;51.196;7.518;2023-07-13T11:22:45;8.50;;;2.33;;
57467;SDS011;43311;51.196;7.518;2023-07-13T11:25:32;6.13;;;2.10;;
57467;SDS011;43311;51.196;7.518;2023-07-13T11:28:11;7.55;;;1.83;;
57467;SDS011;43311;51.196;7.518;2023-07-13T11:36:05;5.82;;;2.65;;
57467;SDS011;43311;51.196;7.518;2023-07-13T11:38:40;7.10;;;2.47;;
57467;SDS011;43311;51.196;7.518;2023-07-13T11:41:42;7.35;;;1.90;;
57467;SDS011;43311;51.196;7.518;2023-07-13T11:44:12;5.00;;;1.85;;
57467;SDS011;43311;51.196;7.518;2023-07-13T11:46:44;5.93;;;1.42;;
57467;SDS011;43311;51.196;7.518;2023-07-13T11:49:13;5.70;;;1.90;;
57467;SDS011;43311;51.196;7.518;2023-07-13T11:51:41;5.43;;;1.85;;
57467;SDS011;43311;51.196;7.518;2023-07-13T11:54:10;3.53;;;1.55;;
57467;SDS011;43311;51.196;7.518;2023-07-13T11:56:48;3.13;;;1.55;;
57467;SDS011;43311;51.196;7.518;2023-07-13T11:59:14;3.85;;;1.60;;
57467;SDS011;43311;51.196;7.518;2023-07-13T12:01:42;3.67;;;1.15;;
57467;SDS011;43311;51.196;7.518;2023-07-13T12:04:18;8.52;;;1.40;;
57467;SDS011;43311;51.196;7.518;2023-07-13T12:06:56;3.38;;;1.63;;
57467;SDS011;43311;51.196;7.518;2023-07-13T12:09:28;6.43;;;1.98;;
57467;SDS011;43311;51.196;7.518;2023-07-13T12:11:56;7.60;;;1.65;;
57467;SDS011;43311;51.196;7.518;2023-07-13T12:16:50;3.00;;;1.45;;
57467;SDS011;43311;51.196;7.518;2023-07-13T12:19:24;6.50;;;1.65;;
57467;SDS011;43311;51.196;7.518;2023-07-13T12:21:53;5.07;;;1.50;;
57467;SDS011;43311;51.196;7.518;2023-07-13T12:24:20;4.60;;;1.70;;
57467;SDS011;43311;51.196;7.518;2023-07-13T12:26:52;7.63;;;2.00;;
57467;SDS011;43311;51.196;7.518;2023-07-13T12:29:29;9.13;;;1.70;;
57467;SDS011;43311;51.196;7.518;2023-07-13T12:31:55;5.68;;;1.50;;
57467;SDS011;43311;51.196;7.518;2023-07-13T12:34:22;6.47;;;1.98;;
57467;SDS011;43311;51.196;7.518;2023-07-13T12:36:56;5.45;;;1.63;;
57467;SDS011;43311;51.196;7.518;2023-07-13T12:44:53;5.70;;;1.63;;
57467;SDS011;43311;51.196;7.518;2023-07-13T12:47:43;5.15;;;1.75;;
57467;SDS011;43311;51.196;7.518;2023-07-13T12:50:17;3.25;;;1.70;;
57467;SDS011;43311;51.196;7.518;2023-07-13T12:52:50;4.00;;;1.63;;
57467;SDS011;43311;51.196;7.518;2023-07-13T12:55:17;4.07;;;1.63;;
57467;SDS011;43311;51.196;7.518;2023-07-13T12:57:47;6.83;;;1.73;;
57467;SDS011;43311;51.196;7.518;2023-07-13T13:00:23;19.95;;;2.63;;
57467;SDS011;43311;51.196;7.518;2023-07-13T13:02:56;4.47;;;1.70;;
57467;SDS011;43311;51.196;7.518;2023-07-13T13:05:25;5.00;;;1.60;;
57467;SDS011;43311;51.196;7.518;2023-07-13T13:07:51;4.18;;;1.38;;
57467;SDS011;43311;51.196;7.518;2023-07-13T13:10:17;6.35;;;1.25;;
57467;SDS011;43311;51.196;7.518;2023-07-13T13:12:42;5.78;;;1.10;;
57467;SDS011;43311;51.196;7.518;2023-07-13T13:15:09;7.00;;;1.23;;
57467;SDS011;43311;51.196;7.518;2023-07-13T13:17:36;4.72;;;1.50;;
57467;SDS011;43311;51.196;7.518;2023-07-13T13:20:05;4.32;;;1.60;;
57467;SDS011;43311;51.196;7.518;2023-07-13T13:22:44;4.40;;;1.45;;
57467;SDS011;43311;51.196;7.518;2023-07-13T13:25:11;5.30;;;1.70;;
57467;SDS011;43311;51.196;7.518;2023-07-13T13:27:37;5.07;;;1.60;;
57467;SDS011;43311;51.196;7.518;2023-07-13T13:30:11;2.97;;;1.40;;
57467;SDS011;43311;51.196;7.518;2023-07-13T13:32:41;4.03;;;1.67;;
57467;SDS011;43311;51.196;7.518;2023-07-13T13:35:18;4.75;;;2.00;;
57467;SDS011;43311;51.196;7.518;2023-07-13T13:37:45;5.55;;;1.65;;
57467;SDS011;43311;51.196;7.518;2023-07-13T13:40:22;6.75;;;1.50;;
57467;SDS011;43311;51.196;7.518;2023-07-13T13:42:48;6.97;;;2.30;;
57467;SDS011;43311;51.196;7.518;2023-07-13T13:45:14;7.55;;;1.40;;
57467;SDS011;43311;51.196;7.518;2023-07-13T13:47:43;4.57;;;1.35;;
57467;SDS011;43311;51.196;7.518;2023-07-13T13:52:38;5.43;;;1.48;;
57467;SDS011;43311;51.196;7.518;2023-07-13T13:55:10;5.57;;;1.40;;
57467;SDS011;43311;51.196;7.518;2023-07-13T13:57:40;5.25;;;1.50;;
57467;SDS011;43311;51.196;7.518;2023-07-13T14:00:07;3.85;;;1.27;;
57467;SDS011;43311;51.196;7.518;2023-07-13T14:02:36;2.63;;;1.30;;
57467;SDS011;43311;51.196;7.518;2023-07-13T14:05:03;4.47;;;1.35;;
57467;SDS011;43311;51.196;7.518;2023-07-13T14:07:28;3.60;;;1.40;;
57467;SDS011;43311;51.196;7.518;2023-07-13T14:12:23;4.43;;;1.33;;
57467;SDS011;43311;51.196;7.518;2023-07-13T14:17:24;4.28;;;1.23;;
57467;SDS011;43311;51.196;7.518;2023-07-13T14:19:52;5.35;;;1.40;;
57467;SDS011;43311;51.196;7.518;2023-07-13T14:22:25;5.15;;;1.30;;
57467;SDS011;43311;51.196;7.518;2023-07-13T14:24:55;2.45;;;1.20;;
57467;SDS011;43311;51.196;7.518;2023-07-13T14:27:22;3.25;;;1.27;;
57467;SDS011;43311;51.196;7.518;2023-07-13T14:29:48;4.85;;;1.73;;
57467;SDS011;43311;51.196;7.518;2023-07-13T14:32:14;3.08;;;1.40;;
57467;SDS011;43311;51.196;7.518;2023-07-13T14:34:39;4.82;;;1.40;;
57467;SDS011;43311;51.196;7.518;2023-07-13T14:37:05;4.70;;;1.40;;
57467;SDS011;43311;51.196;7.518;2023-07-13T14:39:34;3.03;;;1.17;;
57467;SDS011;43311;51.196;7.518;2023-07-13T14:41:59;6.57;;;1.42;;
57467;SDS011;43311;51.196;7.518;2023-07-13T14:44:26;3.45;;;1.23;;
57467;SDS011;43311;51.196;7.518;2023-07-13T14:46:56;5.25;;;1.40;;
57467;SDS011;43311;51.196;7.518;2023-07-13T14:49:42;3.13;;;1.60;;
57467;SDS011;43311;51.196;7.518;2023-07-13T14:54:37;2.33;;;1.15;;
57467;SDS011;43311;51.196;7.518;2023-07-13T14:57:10;5.30;;;1.75;;
57467;SDS011;43311;51.196;7.518;2023-07-13T14:59:37;3.50;;;1.33;;
57467;SDS011;43311;51.196;7.518;2023-07-13T15:02:08;2.55;;;1.00;;
57467;SDS011;43311;51.196;7.518;2023-07-13T15:04:57;11.52;;;1.50;;
57467;SDS011;43311;51.196;7.518;2023-07-13T15:07:22;4.55;;;1.52;;
57467;SDS011;43311;51.196;7.518;2023-07-13T15:09:48;3.22;;;1.20;;
57467;SDS011;43311;51.196;7.518;2023-07-13T15:12:16;6.37;;;1.97;;
57467;SDS011;43311;51.196;7.518;2023-07-13T15:14:41;4.13;;;1.48;;
57467;SDS011;43311;51.196;7.518;2023-07-13T15:17:20;4.38;;;1.83;;
57467;SDS011;43311;51.196;7.518;2023-07-13T15:19:52;5.47;;;1.88;;
57467;SDS011;43311;51.196;7.518;2023-07-13T15:22:17;3.60;;;1.42;;
57467;SDS011;43311;51.196;7.518;2023-07-13T15:24:43;5.93;;;1.30;;
57467;SDS011;43311;51.196;7.518;2023-07-13T15:27:11;5.47;;;1.58;;
57467;SDS011;43311;51.196;7.518;2023-07-13T15:29:37;3.72;;;1.60;;
57467;SDS011;43311;51.196;7.518;2023-07-13T15:32:02;8.13;;;1.38;;
57467;SDS011;43311;51.196;7.518;2023-07-13T15:34:28;3.45;;;1.55;;
57467;SDS011;43311;51.196;7.518;2023-07-13T15:36:53;4.25;;;1.58;;
57467;SDS011;43311;51.196;7.518;2023-07-13T15:39:19;3.50;;;1.20;;
57467;SDS011;43311;51.196;7.518;2023-07-13T15:41:45;5.57;;;1.42;;
57467;SDS011;43311;51.196;7.518;2023-07-13T15:44:22;5.38;;;1.88;;
57467;SDS011;43311;51.196;7.518;2023-07-13T15:46:50;4.70;;;1.50;;
57467;SDS011;43311;51.196;7.518;2023-07-13T15:49:16;4.45;;;1.63;;
57467;SDS011;43311;51.196;7.518;2023-07-13T15:51:41;5.25;;;1.55;;
57467;SDS011;43311;51.196;7.518;2023-07-13T15:54:08;7.32;;;1.27;;
57467;SDS011;43311;51.196;7.518;2023-07-13T15:56:38;3.15;;;1.35;;
57467;SDS011;43311;51.196;7.518;2023-07-13T15:59:06;3.85;;;1.35;;